createdAt,value
2022-10-08T00:00:05.370Z,100108.84
2022-10-08T00:02:59.727Z,100113.09
2022-10-08T00:05:57.005Z,100116.56
2022-10-08T00:08:50.194Z,100107.00
2022-10-08T00:11:39.832Z,100112.19
2022-10-08T00:14:28.265Z,100114.78
2022-10-08T00:17:16.640Z,100112.28
2022-10-08T00:20:06.040Z,100109.59
2022-10-08T00:22:54.413Z,100104.38
2022-10-08T00:25:45.127Z,100107.91
2022-10-08T00:28:34.005Z,100108.09
2022-10-08T00:31:24.066Z,100107.16
2022-10-08T00:34:15.243Z,100106.25
2022-10-08T00:37:03.684Z,100109.38
2022-10-08T00:39:52.088Z,100113.69
2022-10-08T00:42:42.081Z,100105.88
2022-10-08T00:45:30.508Z,100110.97
2022-10-08T00:48:25.547Z,100104.00
2022-10-08T00:51:13.911Z,100105.66
2022-10-08T00:54:02.789Z,100102.13
2022-10-08T00:56:53.621Z,100099.34
2022-10-08T00:59:43.351Z,100102.78
2022-10-08T01:02:31.775Z,100106.94
2022-10-08T01:05:26.471Z,100099.09
2022-10-08T01:08:19.036Z,100110.41
2022-10-08T01:11:13.175Z,100108.66
2022-10-08T01:14:06.451Z,100112.09
2022-10-08T01:17:01.630Z,100106.81
2022-10-08T01:20:11.760Z,100108.47
2022-10-08T01:23:21.854Z,100106.22
2022-10-08T01:26:25.416Z,100107.53
2022-10-08T01:29:17.368Z,100108.75
2022-10-08T01:32:08.392Z,100106.25
2022-10-08T01:34:58.983Z,100102.53
2022-10-08T01:37:47.434Z,100104.00
2022-10-08T01:40:37.564Z,100105.66
2022-10-08T01:43:26.142Z,100108.66
2022-10-08T01:46:19.141Z,100116.28
2022-10-08T01:49:10.677Z,100116.06
2022-10-08T01:52:02.106Z,100111.59
2022-10-08T01:54:50.478Z,100114.88
2022-10-08T01:57:38.889Z,100114.97
2022-10-08T02:00:27.287Z,100114.97
2022-10-08T02:03:17.005Z,100112.34
2022-10-08T02:06:06.351Z,100107.25
2022-10-08T02:08:54.706Z,100118.50
2022-10-08T02:11:43.092Z,100116.81
2022-10-08T02:14:31.495Z,100118.69
2022-10-08T02:17:26.324Z,100111.06
2022-10-08T02:20:19.989Z,100108.25
2022-10-08T02:23:12.182Z,100104.94
2022-10-08T02:26:01.475Z,100105.94
2022-10-08T02:28:52.874Z,100106.81
2022-10-08T02:31:45.127Z,100108.47
2022-10-08T02:34:35.051Z,100109.41
2022-10-08T02:37:26.053Z,100115.38
2022-10-08T02:40:15.926Z,100107.72
2022-10-08T02:43:08.581Z,100112.94
2022-10-08T02:45:58.985Z,100119.91
2022-10-08T02:48:51.628Z,100119.97
2022-10-08T02:51:42.226Z,100127.78
2022-10-08T02:54:36.957Z,100122.69
2022-10-08T02:57:28.529Z,100122.56
2022-10-08T03:00:16.964Z,100126.13
2022-10-08T03:03:12.489Z,100123.44
2022-10-08T03:06:02.134Z,100125.53
2022-10-08T03:08:50.491Z,100132.50
2022-10-08T03:11:40.210Z,100130.03
2022-10-08T03:14:28.778Z,100144.03
2022-10-08T03:17:20.809Z,100129.47
2022-10-08T03:20:10.196Z,100137.09
2022-10-08T03:22:59.333Z,100139.78
2022-10-08T03:25:47.705Z,100133.75
2022-10-08T03:28:37.455Z,100140.69
2022-10-08T03:31:25.890Z,100151.38
2022-10-08T03:34:14.209Z,100155.84
2022-10-08T03:37:02.615Z,100163.66
2022-10-08T03:39:51.007Z,100164.59
2022-10-08T03:42:39.351Z,100157.81
2022-10-08T03:45:29.027Z,100155.28
2022-10-08T03:48:17.349Z,100160.50
2022-10-08T03:51:08.514Z,100164.03
2022-10-08T03:53:56.862Z,100163.31
2022-10-08T03:56:45.292Z,100167.94
2022-10-08T03:59:33.679Z,100169.13
2022-10-08T04:02:23.416Z,100177.41
2022-10-08T04:05:11.791Z,100178.69
2022-10-08T04:08:00.186Z,100174.03
2022-10-08T04:10:48.599Z,100184.06
2022-10-08T04:13:37.815Z,100180.38
2022-10-08T04:16:26.169Z,100182.78
2022-10-08T04:19:17.490Z,100180.00
2022-10-08T04:22:05.914Z,100183.13
2022-10-08T04:24:54.264Z,100187.25
2022-10-08T04:27:42.591Z,100194.88
2022-10-08T04:30:31.074Z,100195.66
2022-10-08T04:33:20.042Z,100194.50
2022-10-08T04:36:11.005Z,100200.53
2022-10-08T04:38:59.381Z,100194.22
2022-10-08T04:41:47.750Z,100197.47
2022-10-08T04:44:36.102Z,100196.34
2022-10-08T04:47:24.515Z,100201.16
2022-10-08T04:50:12.901Z,100205.16
2022-10-08T04:53:02.575Z,100209.13
2022-10-08T04:55:50.926Z,100211.25
2022-10-08T04:58:39.302Z,100209.84
2022-10-08T05:01:28.452Z,100207.72
2022-10-08T05:04:16.946Z,100209.84
2022-10-08T05:07:05.399Z,100217.78
2022-10-08T05:09:55.169Z,100218.13
2022-10-08T05:12:43.550Z,100216.00
2022-10-08T05:15:32.068Z,100228.59
2022-10-08T05:18:20.421Z,100227.34
2022-10-08T05:21:10.482Z,100229.44
2022-10-08T05:24:00.220Z,100234.06
2022-10-08T05:26:59.515Z,100235.19
2022-10-08T05:29:48.004Z,100230.22
2022-10-08T05:32:36.344Z,100237.22
2022-10-08T05:35:24.656Z,100237.44
2022-10-08T05:38:12.996Z,100234.25
2022-10-08T05:41:11.025Z,100230.31
2022-10-08T05:44:01.885Z,100247.78
2022-10-08T05:46:50.314Z,100251.38
2022-10-08T05:49:38.716Z,100262.84
2022-10-08T05:52:27.460Z,100251.94
2022-10-08T05:55:15.972Z,100262.50
2022-10-08T05:58:04.318Z,100269.47
2022-10-08T06:00:59.857Z,100272.13
2022-10-08T06:03:46.334Z,100274.97
2022-10-08T06:06:14.581Z,100280.38
2022-10-08T06:08:42.756Z,100283.88
2022-10-08T06:11:10.899Z,100287.50
2022-10-08T06:13:38.988Z,100286.78
2022-10-08T06:16:10.592Z,100285.16
2022-10-08T06:18:40.503Z,100286.34
2022-10-08T06:21:10.284Z,100289.19
2022-10-08T06:23:39.126Z,100292.75
2022-10-08T06:26:08.465Z,100291.28
2022-10-08T06:28:37.928Z,100294.69
2022-10-08T06:31:08.239Z,100304.06
2022-10-08T06:33:36.705Z,100304.06
2022-10-08T06:36:05.576Z,100303.91
2022-10-08T06:38:33.709Z,100304.59
2022-10-08T06:41:01.981Z,100317.69
2022-10-08T06:43:30.106Z,100314.50
2022-10-08T06:46:00.073Z,100302.66
2022-10-08T06:48:29.552Z,100311.03
2022-10-08T06:51:01.149Z,100310.13
2022-10-08T06:53:29.276Z,100311.91
2022-10-08T06:55:58.378Z,100304.84
2022-10-08T06:58:26.571Z,100307.16
2022-10-08T07:01:03.510Z,100300.38
2022-10-08T07:03:33.115Z,100323.16
2022-10-08T07:06:01.802Z,100320.75
2022-10-08T07:08:29.967Z,100314.13
2022-10-08T07:11:06.647Z,100322.59
2022-10-08T07:13:34.871Z,100322.06
2022-10-08T07:16:04.572Z,100324.44
2022-10-08T07:18:34.639Z,100322.44
2022-10-08T07:21:02.814Z,100315.09
2022-10-08T07:23:30.914Z,100313.72
2022-10-08T07:25:59.781Z,100310.72
2022-10-08T07:28:28.853Z,100312.81
2022-10-08T07:30:56.944Z,100316.41
2022-10-08T07:33:25.047Z,100319.31
2022-10-08T07:35:54.547Z,100319.63
2022-10-08T07:38:22.686Z,100324.22
2022-10-08T07:40:51.430Z,100327.56
2022-10-08T07:43:19.937Z,100326.44
2022-10-08T07:45:50.083Z,100326.28
2022-10-08T07:48:19.937Z,100319.19
2022-10-08T07:50:48.091Z,100322.97
2022-10-08T07:53:17.758Z,100320.34
2022-10-08T07:55:45.934Z,100333.72
2022-10-08T07:58:14.227Z,100332.63
2022-10-08T08:00:42.394Z,100335.06
2022-10-08T08:03:14.377Z,100345.59
2022-10-08T08:05:42.456Z,100338.25
2022-10-08T08:08:11.125Z,100341.06
2022-10-08T08:10:40.584Z,100338.66
2022-10-08T08:13:08.645Z,100340.75
2022-10-08T08:15:36.746Z,100355.50
2022-10-08T08:18:05.147Z,100354.81
2022-10-08T08:20:33.314Z,100362.28
2022-10-08T08:23:01.511Z,100368.53
2022-10-08T08:25:29.586Z,100368.03
2022-10-08T08:27:59.145Z,100360.91
2022-10-08T08:30:27.276Z,100369.34
2022-10-08T08:32:55.416Z,100364.44
2022-10-08T08:35:23.528Z,100376.59
2022-10-08T08:37:51.712Z,100378.78
2022-10-08T08:40:19.939Z,100371.22
2022-10-08T08:42:52.180Z,100368.97
2022-10-08T08:45:46.743Z,100371.88
2022-10-08T08:48:18.515Z,100375.22
2022-10-08T08:50:48.885Z,100379.13
2022-10-08T08:53:17.299Z,100378.03
2022-10-08T08:55:46.482Z,100373.53
2022-10-08T08:58:21.921Z,100381.19
2022-10-08T09:00:56.937Z,100383.44
2022-10-08T09:03:27.987Z,100379.84
2022-10-08T09:05:58.124Z,100382.97
2022-10-08T09:08:29.746Z,100384.97
2022-10-08T09:10:58.812Z,100372.06
2022-10-08T09:13:28.934Z,100373.78
2022-10-08T09:15:58.364Z,100382.06
2022-10-08T09:18:26.446Z,100373.63
2022-10-08T09:20:54.555Z,100376.03
2022-10-08T09:23:23.983Z,100385.00
2022-10-08T09:25:57.544Z,100387.38
2022-10-08T09:28:44.319Z,100383.09
2022-10-08T09:31:20.621Z,100389.50
2022-10-08T09:33:59.420Z,100376.22
2022-10-08T09:36:36.209Z,100398.88
2022-10-08T09:39:06.108Z,100389.84
2022-10-08T09:41:34.294Z,100397.50
2022-10-08T09:44:19.137Z,100399.47
2022-10-08T09:46:49.112Z,100403.94
2022-10-08T09:49:27.327Z,100398.06
2022-10-08T09:51:55.416Z,100403.38
2022-10-08T09:54:25.088Z,100404.97
2022-10-08T09:56:53.871Z,100406.75
2022-10-08T09:59:22.877Z,100409.06
2022-10-08T10:01:53.071Z,100402.59
2022-10-08T10:04:27.821Z,100410.59
2022-10-08T10:06:56.458Z,100410.34
2022-10-08T10:09:30.177Z,100416.09
2022-10-08T10:12:00.508Z,100414.84
2022-10-08T10:14:33.882Z,100418.50
2022-10-08T10:17:06.053Z,100417.22
2022-10-08T10:19:38.258Z,100412.31
2022-10-08T10:22:09.501Z,100424.13
2022-10-08T10:24:48.106Z,100423.91
2022-10-08T10:27:19.166Z,100414.91
2022-10-08T10:29:56.175Z,100420.53
2022-10-08T10:32:31.833Z,100425.16
2022-10-08T10:35:05.800Z,100417.59
2022-10-08T10:37:39.867Z,100422.28
2022-10-08T10:40:29.437Z,100414.22
2022-10-08T10:43:17.138Z,100423.94
2022-10-08T10:45:47.560Z,100426.94
2022-10-08T10:48:17.012Z,100424.22
2022-10-08T10:51:00.762Z,100426.00
2022-10-08T10:53:35.212Z,100425.88
2022-10-08T10:56:08.351Z,100426.00
2022-10-08T10:58:54.580Z,100429.53
2022-10-08T11:01:29.992Z,100433.84
2022-10-08T11:04:05.094Z,100430.50
2022-10-08T11:07:03.074Z,100429.81
2022-10-08T11:09:41.990Z,100430.00
2022-10-08T11:12:21.932Z,100428.44
2022-10-08T11:14:58.415Z,100429.88
2022-10-08T11:17:49.188Z,100434.94
2022-10-08T11:20:39.594Z,100442.09
2022-10-08T11:23:15.828Z,100440.53
2022-10-08T11:26:14.989Z,100445.53
2022-10-08T11:28:44.839Z,100443.78
2022-10-08T11:31:18.691Z,100438.38
2022-10-08T11:33:46.821Z,100440.59
2022-10-08T11:36:22.417Z,100445.06
2022-10-08T11:38:53.644Z,100450.19
2022-10-08T11:41:25.752Z,100444.97
2022-10-08T11:43:55.558Z,100448.13
2022-10-08T11:46:28.787Z,100449.59
2022-10-08T11:48:58.789Z,100438.88
2022-10-08T11:51:38.240Z,100442.94
2022-10-08T11:54:13.935Z,100431.97
2022-10-08T11:56:44.684Z,100441.06
2022-10-08T11:59:34.891Z,100441.75
2022-10-08T12:02:04.409Z,100445.38
2022-10-08T12:04:35.006Z,100444.81
2022-10-08T12:07:08.741Z,100446.50
2022-10-08T12:10:17.737Z,100457.88
2022-10-08T12:13:27.667Z,100454.19
2022-10-08T12:16:06.663Z,100456.06
2022-10-08T12:18:52.601Z,100454.28
2022-10-08T12:21:54.762Z,100456.97
2022-10-08T12:24:57.505Z,100454.38
2022-10-08T12:27:41.187Z,100459.56
2022-10-08T12:30:11.834Z,100452.50
2022-10-08T12:32:58.201Z,100456.41
2022-10-08T12:35:29.723Z,100441.28
2022-10-08T12:38:25.074Z,100440.13
2022-10-08T12:41:10.122Z,100435.97
2022-10-08T12:43:43.036Z,100443.22
2022-10-08T12:46:19.108Z,100445.13
2022-10-08T12:48:50.680Z,100448.56
2022-10-08T12:51:25.895Z,100443.56
2022-10-08T12:53:53.974Z,100445.94
2022-10-08T12:56:26.180Z,100446.69
2022-10-08T12:58:54.361Z,100446.88
2022-10-08T13:01:22.646Z,100442.81
2022-10-08T13:04:18.001Z,100442.50
2022-10-08T13:06:46.156Z,100439.78
2022-10-08T13:09:29.113Z,100435.94
2022-10-08T13:12:03.179Z,100435.53
2022-10-08T13:14:33.195Z,100430.09
2022-10-08T13:17:01.371Z,100432.22
2022-10-08T13:19:32.134Z,100427.91
2022-10-08T13:22:01.250Z,100427.69
2022-10-08T13:24:39.010Z,100434.38
2022-10-08T13:27:26.385Z,100430.44
2022-10-08T13:29:55.120Z,100430.88
2022-10-08T13:32:25.595Z,100428.47
2022-10-08T13:34:55.319Z,100435.69
2022-10-08T13:37:29.726Z,100429.50
2022-10-08T13:39:59.134Z,100437.00
2022-10-08T13:42:30.036Z,100452.63
2022-10-08T13:44:59.903Z,100436.09
2022-10-08T13:47:28.503Z,100448.34
2022-10-08T13:50:01.539Z,100454.06
2022-10-08T13:52:30.846Z,100452.50
2022-10-08T13:55:01.043Z,100448.59
2022-10-08T13:57:30.482Z,100449.59
2022-10-08T13:59:58.585Z,100449.19
2022-10-08T14:02:26.663Z,100447.91
2022-10-08T14:04:54.793Z,100448.88
2022-10-08T14:07:24.942Z,100447.53
2022-10-08T14:09:53.206Z,100440.06
2022-10-08T14:12:26.236Z,100444.97
2022-10-08T14:14:55.783Z,100442.19
2022-10-08T14:17:23.942Z,100447.09
2022-10-08T14:19:52.041Z,100444.25
2022-10-08T14:22:20.171Z,100450.34
2022-10-08T14:24:58.924Z,100452.44
2022-10-08T14:27:27.038Z,100447.38
2022-10-08T14:29:56.500Z,100443.81
2022-10-08T14:32:24.588Z,100448.50
2022-10-08T14:34:52.626Z,100435.88
2022-10-08T14:37:20.695Z,100451.22
2022-10-08T14:39:48.928Z,100448.38
2022-10-08T14:42:16.961Z,100441.03
2022-10-08T14:44:45.068Z,100444.34
2022-10-08T14:47:14.589Z,100437.94
2022-10-08T14:49:42.692Z,100438.31
2022-10-08T14:52:10.770Z,100439.28
2022-10-08T14:54:38.866Z,100439.63
2022-10-08T14:57:06.968Z,100437.81
2022-10-08T14:59:39.727Z,100436.31
2022-10-08T15:02:10.257Z,100434.63
2022-10-08T15:04:39.807Z,100435.34
2022-10-08T15:07:07.880Z,100427.78
2022-10-08T15:09:37.169Z,100434.59
2022-10-08T15:12:05.301Z,100431.25
2022-10-08T15:14:37.919Z,100437.09
2022-10-08T15:17:06.558Z,100426.31
2022-10-08T15:19:34.623Z,100422.59
2022-10-08T15:22:04.126Z,100416.41
2022-10-08T15:24:32.244Z,100432.44
2022-10-08T15:27:00.353Z,100435.41
2022-10-08T15:29:28.467Z,100430.09
2022-10-08T15:31:56.822Z,100430.06
2022-10-08T15:34:25.008Z,100427.69
2022-10-08T15:36:54.686Z,100426.28
2022-10-08T15:39:24.415Z,100420.44
2022-10-08T15:41:53.045Z,100431.59
2022-10-08T15:44:22.447Z,100426.69
2022-10-08T15:46:54.832Z,100438.56
2022-10-08T15:49:30.218Z,100435.91
2022-10-08T15:51:59.704Z,100443.03
2022-10-08T15:54:29.103Z,100443.25
2022-10-08T15:56:57.196Z,100442.44
2022-10-08T15:59:25.332Z,100441.81
2022-10-08T16:01:53.374Z,100444.91
2022-10-08T16:04:21.529Z,100452.09
2022-10-08T16:06:49.725Z,100450.94
2022-10-08T16:09:19.719Z,100444.03
2022-10-08T16:11:49.351Z,100448.44
2022-10-08T16:14:19.389Z,100451.16
2022-10-08T16:16:47.563Z,100456.22
2022-10-08T16:19:17.112Z,100458.38
2022-10-08T16:21:45.866Z,100470.44
2022-10-08T16:24:14.420Z,100463.88
2022-10-08T16:26:42.676Z,100467.47
2022-10-08T16:29:14.214Z,100471.88
2022-10-08T16:31:43.418Z,100482.56
2022-10-08T16:34:14.006Z,100478.09
2022-10-08T16:36:42.164Z,100500.50
2022-10-08T16:39:11.817Z,100494.31
2022-10-08T16:41:39.886Z,100494.50
2022-10-08T16:44:13.175Z,100508.41
2022-10-08T16:46:42.614Z,100516.94
2022-10-08T16:49:21.098Z,100523.72
2022-10-08T16:51:52.398Z,100526.09
2022-10-08T16:54:20.543Z,100525.56
2022-10-08T16:56:48.684Z,100534.31
2022-10-08T16:59:20.038Z,100533.63
2022-10-08T17:01:49.803Z,100539.81
2022-10-08T17:04:18.411Z,100549.34
2022-10-08T17:06:46.802Z,100554.75
2022-10-08T17:09:14.895Z,100558.25
2022-10-08T17:11:43.079Z,100560.78
2022-10-08T17:14:11.858Z,100566.81
2022-10-08T17:16:43.176Z,100576.16
2022-10-08T17:19:11.584Z,100572.69
2022-10-08T17:21:39.817Z,100580.28
2022-10-08T17:24:08.122Z,100585.94
2022-10-08T17:26:36.243Z,100582.09
2022-10-08T17:29:05.432Z,100584.22
2022-10-08T17:31:33.636Z,100586.41
2022-10-08T17:34:03.912Z,100599.00
2022-10-08T17:36:33.226Z,100598.78
2022-10-08T17:39:02.943Z,100604.38
2022-10-08T17:41:32.109Z,100616.19
2022-10-08T17:44:02.217Z,100611.50
2022-10-08T17:46:31.621Z,100613.66
2022-10-08T17:48:59.958Z,100626.94
2022-10-08T17:51:30.354Z,100626.50
2022-10-08T17:54:00.375Z,100631.06
2022-10-08T17:56:28.806Z,100633.91
2022-10-08T17:58:57.028Z,100630.59
2022-10-08T18:01:26.183Z,100636.78
2022-10-08T18:03:55.613Z,100629.28
2022-10-08T18:06:25.501Z,100643.91
2022-10-08T18:08:56.975Z,100642.28
2022-10-08T18:11:25.570Z,100645.69
2022-10-08T18:13:53.640Z,100643.13
2022-10-08T18:16:22.012Z,100656.06
2022-10-08T18:18:50.386Z,100658.63
2022-10-08T18:21:19.474Z,100661.19
2022-10-08T18:23:48.187Z,100664.59
2022-10-08T18:26:19.589Z,100655.03
2022-10-08T18:28:48.628Z,100657.50
2022-10-08T18:31:17.116Z,100660.94
2022-10-08T18:33:46.667Z,100663.34
2022-10-08T18:36:15.918Z,100665.94
2022-10-08T18:38:45.100Z,100673.72
2022-10-08T18:41:14.804Z,100676.28
2022-10-08T18:43:44.633Z,100670.44
2022-10-08T18:46:12.974Z,100679.16
2022-10-08T18:48:41.099Z,100680.09
2022-10-08T18:51:11.233Z,100684.47
2022-10-08T18:53:40.753Z,100689.69
2022-10-08T18:56:10.424Z,100690.66
2022-10-08T18:58:38.546Z,100696.81
2022-10-08T19:01:08.445Z,100697.03
2022-10-08T19:03:36.658Z,100698.88
2022-10-08T19:06:08.051Z,100702.44
2022-10-08T19:08:36.058Z,100708.56
2022-10-08T19:11:11.475Z,100711.25
2022-10-08T19:13:39.610Z,100707.75
2022-10-08T19:16:13.420Z,100711.13
2022-10-08T19:18:43.244Z,100717.06
2022-10-08T19:21:12.044Z,100717.88
2022-10-08T19:23:40.257Z,100732.28
2022-10-08T19:26:08.391Z,100736.50
2022-10-08T19:28:37.896Z,100727.72
2022-10-08T19:31:15.099Z,100736.41
2022-10-08T19:33:43.260Z,100737.38
2022-10-08T19:36:11.290Z,100736.50
2022-10-08T19:38:39.369Z,100738.22
2022-10-08T19:41:10.975Z,100731.34
2022-10-08T19:43:39.113Z,100740.84
2022-10-08T19:46:07.512Z,100746.16
2022-10-08T19:48:37.016Z,100761.72
2022-10-08T19:51:06.003Z,100761.06
2022-10-08T19:53:34.237Z,100766.56
2022-10-08T19:56:03.916Z,100772.84
2022-10-08T19:58:32.019Z,100779.16
2022-10-08T20:01:00.844Z,100771.59
2022-10-08T20:03:52.917Z,100769.34
2022-10-08T20:06:42.282Z,100772.06
2022-10-08T20:09:30.903Z,100774.63
2022-10-08T20:12:19.265Z,100779.81
2022-10-08T20:15:10.054Z,100785.94
2022-10-08T20:17:58.424Z,100791.19
2022-10-08T20:20:48.252Z,100797.41
2022-10-08T20:23:37.147Z,100797.56
2022-10-08T20:26:26.987Z,100799.44
2022-10-08T20:29:17.325Z,100791.00
2022-10-08T20:32:05.772Z,100790.34
2022-10-08T20:34:54.105Z,100796.53
2022-10-08T20:37:43.863Z,100791.69
2022-10-08T20:40:32.214Z,100802.31
2022-10-08T20:43:20.605Z,100801.59
2022-10-08T20:46:10.561Z,100784.50
2022-10-08T20:48:59.108Z,100792.28
2022-10-08T20:51:47.461Z,100799.25
2022-10-08T20:54:37.281Z,100801.97
2022-10-08T20:57:25.668Z,100794.22
2022-10-08T21:00:15.307Z,100795.84
2022-10-08T21:03:03.720Z,100803.53
2022-10-08T21:05:52.093Z,100803.56
2022-10-08T21:08:42.801Z,100801.94
2022-10-08T21:11:32.758Z,100810.63
2022-10-08T21:14:22.546Z,100809.88
2022-10-08T21:17:10.911Z,100812.56
2022-10-08T21:19:59.277Z,100811.84
2022-10-08T21:22:47.851Z,100814.53
2022-10-08T21:25:36.414Z,100823.06
2022-10-08T21:28:26.287Z,100824.72
2022-10-08T21:31:15.264Z,100825.50
2022-10-08T21:34:03.941Z,100821.94
2022-10-08T21:36:52.475Z,100819.28
2022-10-08T21:39:40.837Z,100820.16
2022-10-08T21:42:29.526Z,100827.03
2022-10-08T21:45:19.331Z,100828.84
2022-10-08T21:48:07.663Z,100827.25
2022-10-08T21:50:58.225Z,100826.53
2022-10-08T21:53:48.161Z,100819.72
2022-10-08T21:56:38.470Z,100830.06
2022-10-08T21:59:27.506Z,100824.97
2022-10-08T22:02:17.272Z,100819.66
2022-10-08T22:05:06.145Z,100827.25
2022-10-08T22:07:54.491Z,100828.06
2022-10-08T22:10:43.089Z,100827.19
2022-10-08T22:13:31.497Z,100823.69
2022-10-08T22:16:20.988Z,100822.78
2022-10-08T22:19:10.727Z,100826.22
2022-10-08T22:21:59.114Z,100830.53
2022-10-08T22:24:47.473Z,100822.91
2022-10-08T22:27:35.800Z,100827.25
2022-10-08T22:30:24.174Z,100829.09
2022-10-08T22:33:12.561Z,100833.56
2022-10-08T22:36:03.173Z,100832.91
2022-10-08T22:38:51.608Z,100827.88
2022-10-08T22:41:40.059Z,100828.84
2022-10-08T22:44:28.450Z,100833.25
2022-10-08T22:47:16.840Z,100828.19
2022-10-08T22:50:06.783Z,100825.66
2022-10-08T22:52:56.558Z,100823.13
2022-10-08T22:55:44.934Z,100826.59
2022-10-08T22:58:33.661Z,100826.69
2022-10-08T23:01:23.490Z,100825.88
2022-10-08T23:04:11.888Z,100829.31
2022-10-08T23:07:00.226Z,100824.91
2022-10-08T23:09:49.947Z,100829.13
2022-10-08T23:12:38.319Z,100819.53
2022-10-08T23:15:26.759Z,100819.53
2022-10-08T23:18:15.109Z,100816.94
2022-10-08T23:21:03.548Z,100815.19
2022-10-08T23:23:53.614Z,100811.75
2022-10-08T23:26:43.291Z,100810.91
2022-10-08T23:29:31.642Z,100804.81
2022-10-08T23:32:20.050Z,100809.97
2022-10-08T23:35:09.370Z,100810.88
2022-10-08T23:37:57.698Z,100801.47
2022-10-08T23:40:46.131Z,100799.09
2022-10-08T23:43:36.811Z,100794.91
2022-10-08T23:46:26.769Z,100804.53
2022-10-08T23:49:15.314Z,100802.94
2022-10-08T23:52:03.702Z,100799.56
2022-10-08T23:54:52.097Z,100801.22
2022-10-08T23:57:40.425Z,100802.00
